Current Weather

Alice Springs

Alice Springs, Australia (YBAS)

Report from: Thursday, April 25, 2024 2:30 PM AEST
Current time: Thursday, April 25, 2024 2:54 PM AEST

Nearby weather – Weather history – Daily summaries
Weather forecast

Temperature22.0°C (71.6°F)
Dew point3.0°C (37.4°F)
Winds 11 kts (5.7 m/s, 12.7 mph) Vrb
Winds variableWinds variable from East (100°) to South (170°)
Visibility6.2 mi. (10 km)
Clouds Sky clear
Altimeter30.18 in.Hg (1022 mB)
Relative humidity29 %
Density altitude638 ft. (194 m)
Remarks Fully automated report
No clouds detected
Flight conditions Visual Meteorological Conditions
Raw dataYBAS 250430Z AUTO 17011KT 100V170 9999 // NCD 22/03 Q1022 RF00.0/000.0
An error has occurred. This application may no longer respond until reloaded. Reload 🗙